Alliance, NE

11:06 PM MST on February 26, 2015 (GMT -0700)
Alliance Municipal | Change Station
CLOSE
Current Station
Airport
Location: Alliance,
Elevation: 3930 ft
Nearby Weather Stations

Elev 3930 ft 42.06 °N, 102.80 °W | Updated 13 minutes ago

Clear
Clear
1 °F
Feels Like 1 °F
N
0
Wind Variable Wind from North

Today
High -- | Low -- °F
--% Chance of Precip.
Yesterday
High -- | Low -- °F
Precip. -- in
6:31 AM 5:37 PM
Waxing Gibbous, 66% visible
Pressure 30.52 in
Visibility 10.0 miles
Clouds Few 7000 ft
Dew Point -4 °F
Humidity 79%
Rainfall 0.00 in
Snow Depth Not available.
UV 0 out of 12
Pollen .50 out of 12
Air Quality Not available.
Flu Activity Not available.
METAR KAIA 270553Z AUTO 00000KT 10SM FEW070 M17/M20 A3029 RMK AO2 SLP335 T11721200 11117 21178 58004

More Conditions Fewer Conditions

Pressure 30.52 in
Visibility 10.0 miles
Clouds Few 7000 ft
Dew Point -4 °F
Humidity 79%
Rainfall 0.00 in
Snow Depth Not available.
UV 0 out of 12
Pollen .50 out of 12
Air Quality Not available.
Flu Activity Not available.
METAR KAIA 270553Z AUTO 00000KT 10SM FEW070 M17/M20 A3029 RMK AO2 SLP335 T11721200 11117 21178 58004

More Conditions Fewer Conditions

10-Day Weather Forecast

Almanac

Astronomy

Feb. 26, 2015 Rise Set
Actual Time
Civil Twilight
Nautical Twilight
Astronomical Twilight
Moon
Length of Visible Light
Length of Day
Tomorrow will be .
, % of the Moon is Illuminated

Today's Extremes

State Highs State Lows

Community

WunderPhotos

Upload Photos

1,800,643 photos uploaded!

WunderBlogs® & News

Nearby

Air Quality

  Air Quality AQ Index Pollutant
Not available.

Snow Depth

Station Depth Elevation

Earthquake Activity

City Distance Mag. Time & Date
Minimum magnitude displayed is 2.5.

Coastal Water Temperatures

Place Temperature

Nearby Weather Stations